Time;durP1;ratioP1;P1;durP2;ratioP2;P2;SDS_P1;SDS_P2;PMS_P1;PMS_P2;Temp;Humidity;BMP_temperature;BMP_pressure;BME280_temperature;BME280_humidity;BME280_pressure;Samples;Min_cycle;Max_cycle;Signal;HPM_P1;HPM_P2
2022/05/19 00:01:56;;;;;;;3.70;3.47;;;16.70;99.90;;;;;;4924594;28;20487;-88
2022/05/19 00:04:22;;;;;;;4.33;3.50;;;16.50;99.90;;;;;;4916992;28;20273;-89
2022/05/19 00:06:48;;;;;;;3.87;3.57;;;16.50;99.90;;;;;;4935407;28;20996;-89
2022/05/19 00:09:14;;;;;;;4.43;3.33;;;16.50;99.90;;;;;;4919943;28;20187;-90
2022/05/19 00:11:40;;;;;;;5.40;3.43;;;16.50;99.90;;;;;;4943101;28;20255;-90
2022/05/19 00:14:07;;;;;;;3.90;3.40;;;16.50;99.90;;;;;;4955430;28;20431;-89
2022/05/19 00:16:33;;;;;;;3.80;3.50;;;16.50;99.90;;;;;;4950837;28;20517;-90
2022/05/19 00:18:59;;;;;;;4.20;3.80;;;16.40;99.90;;;;;;4927465;28;21103;-89
2022/05/19 00:21:27;;;;;;;3.50;3.20;;;16.40;99.90;;;;;;4925383;28;20490;-89
2022/05/19 00:23:52;;;;;;;3.83;3.47;;;16.30;99.90;;;;;;4915249;28;20472;-90
2022/05/19 00:26:18;;;;;;;4.33;3.50;;;16.30;99.90;;;;;;4920608;28;20478;-90
2022/05/19 00:28:44;;;;;;;6.30;3.80;;;16.20;99.90;;;;;;4920971;28;20183;-89
2022/05/19 00:31:10;;;;;;;3.47;2.90;;;16.10;99.90;;;;;;4952995;28;20685;-90
2022/05/19 00:33:35;;;;;;;4.40;3.70;;;16.00;99.90;;;;;;4953665;28;20250;-89
2022/05/19 00:36:18;;;;;;;4.17;3.40;;;16.00;99.90;;;;;;4955955;28;20842;-89
2022/05/19 00:38:45;;;;;;;3.30;3.00;;;15.90;99.90;;;;;;4957504;28;20528;-89
2022/05/19 00:41:13;;;;;;;2.90;2.70;;;15.70;99.90;;;;;;4952945;28;20466;-89
2022/05/19 00:43:42;;;;;;;3.80;3.60;;;15.80;99.90;;;;;;4939516;28;20429;-89
2022/05/19 00:46:15;;;;;;;3.87;3.57;;;15.90;99.90;;;;;;4939862;28;20446;-89
2022/05/19 00:48:44;;;;;;;3.50;3.20;;;16.00;99.90;;;;;;4943509;28;20434;-92
2022/05/19 00:51:12;;;;;;;3.30;3.10;;;16.00;99.90;;;;;;4921908;28;20972;-90
2022/05/19 00:53:51;;;;;;;4.67;3.87;;;16.10;99.90;;;;;;4937600;28;20483;-90
2022/05/19 00:56:29;;;;;;;3.60;2.90;;;16.10;99.90;;;;;;4921249;28;21064;-90
2022/05/19 00:59:08;;;;;;;3.23;3.03;;;16.10;99.90;;;;;;4923009;28;20956;-90
2022/05/19 01:01:38;;;;;;;3.63;2.93;;;16.00;99.90;;;;;;4925070;28;20576;-90
2022/05/19 01:04:11;;;;;;;3.83;3.00;;;15.90;99.90;;;;;;4942740;28;20453;-90
2022/05/19 01:06:39;;;;;;;4.47;3.33;;;15.80;99.90;;;;;;4927649;28;20554;-91
2022/05/19 01:09:12;;;;;;;4.60;3.20;;;15.70;99.90;;;;;;4927652;28;20486;-90
2022/05/19 01:11:38;;;;;;;4.07;3.67;;;15.70;99.90;;;;;;4931757;28;20460;-90
2022/05/19 01:14:06;;;;;;;3.90;3.40;;;15.70;99.90;;;;;;4917079;28;20457;-90
2022/05/19 01:16:32;;;;;;;7.13;4.13;;;15.80;99.90;;;;;;4947671;28;20450;-91
2022/05/19 01:18:59;;;;;;;3.93;3.63;;;15.80;99.90;;;;;;4936631;28;20451;-91
2022/05/19 01:21:28;;;;;;;3.70;3.40;;;15.90;99.90;;;;;;4926652;28;20247;-92
2022/05/19 01:24:38;;;;;;;3.67;3.37;;;15.80;99.90;;;;;;4936904;28;20440;-89
2022/05/19 01:27:04;;;;;;;4.77;4.30;;;15.80;99.90;;;;;;4857257;29;20855;-91
2022/05/19 01:29:30;;;;;;;4.57;3.80;;;15.90;99.90;;;;;;4921910;28;20455;-91
2022/05/19 01:32:02;;;;;;;4.00;3.70;;;15.80;99.90;;;;;;4936449;28;20317;-90
2022/05/19 01:34:31;;;;;;;3.67;3.40;;;15.90;99.90;;;;;;4937118;28;20618;-90
2022/05/19 01:36:57;;;;;;;4.00;3.70;;;15.80;99.90;;;;;;4940876;28;20454;-89
2022/05/19 01:39:27;;;;;;;5.20;4.00;;;15.80;99.90;;;;;;4934597;28;20466;-90
2022/05/19 01:42:08;;;;;;;4.67;4.27;;;15.70;99.90;;;;;;4921194;28;21595;-90
2022/05/19 01:44:46;;;;;;;3.80;3.50;;;15.50;99.90;;;;;;4937427;28;20520;-89
2022/05/19 01:47:49;;;;;;;4.23;3.83;;;15.40;99.90;;;;;;4954178;28;20556;-91
2022/05/19 01:50:33;;;;;;;6.43;3.23;;;15.50;99.90;;;;;;4920683;28;20886;-90
2022/05/19 01:53:08;;;;;;;3.87;3.57;;;15.70;99.90;;;;;;4925371;28;20484;-90
2022/05/19 01:55:56;;;;;;;3.30;3.10;;;15.90;99.90;;;;;;4939534;28;20437;-90
2022/05/19 01:58:26;;;;;;;4.27;3.70;;;16.10;99.90;;;;;;4947630;28;20447;-92
2022/05/19 02:00:59;;;;;;;4.07;3.17;;;16.30;99.90;;;;;;4951496;28;20549;-90
2022/05/19 02:03:36;;;;;;;3.20;3.00;;;16.50;99.90;;;;;;4925327;28;20446;-91
2022/05/19 02:06:19;;;;;;;3.53;3.23;;;16.60;99.80;;;;;;4935543;28;20487;-91
2022/05/19 02:08:54;;;;;;;3.27;3.07;;;16.60;99.60;;;;;;4920953;28;20460;-90
2022/05/19 02:11:31;;;;;;;6.70;4.10;;;16.70;99.90;;;;;;4925288;28;20553;-91
2022/05/19 02:14:00;;;;;;;3.73;3.43;;;16.80;99.90;;;;;;4952897;28;20438;-91
2022/05/19 02:16:30;;;;;;;4.10;3.80;;;16.70;99.90;;;;;;4945656;28;20453;-91
2022/05/19 02:19:17;;;;;;;4.53;4.13;;;16.20;99.90;;;;;;4941251;28;20541;-92
2022/05/19 02:21:44;;;;;;;4.20;3.90;;;15.90;99.90;;;;;;4905924;28;20462;-92
2022/05/19 02:24:14;;;;;;;4.40;4.10;;;15.50;99.90;;;;;;4943715;28;20545;-92
2022/05/19 02:26:40;;;;;;;5.03;3.90;;;15.30;99.90;;;;;;4950202;28;20451;-92
2022/05/19 02:29:17;;;;;;;4.40;4.00;;;15.30;99.90;;;;;;4932117;28;21330;-92
2022/05/19 02:31:44;;;;;;;4.30;4.00;;;15.40;99.90;;;;;;4921082;28;20245;-92
2022/05/19 02:34:10;;;;;;;4.33;4.03;;;15.50;99.90;;;;;;4920822;28;20965;-91
2022/05/19 02:36:36;;;;;;;3.57;3.37;;;15.70;99.90;;;;;;4926948;28;20446;-92
2022/05/19 02:39:02;;;;;;;4.07;3.73;;;15.80;99.90;;;;;;4927336;28;21757;-92
2022/05/19 02:41:29;;;;;;;4.47;3.60;;;15.70;99.90;;;;;;4925309;28;20199;-91
2022/05/19 02:43:55;;;;;;;4.43;4.03;;;15.60;99.90;;;;;;4917332;28;20472;-91
2022/05/19 02:46:21;;;;;;;5.10;4.07;;;15.50;99.90;;;;;;4917452;28;20462;-90
2022/05/19 02:48:46;;;;;;;4.27;3.87;;;15.40;99.90;;;;;;4936966;28;20242;-91
2022/05/19 02:51:12;;;;;;;4.40;4.00;;;15.40;99.90;;;;;;4935707;28;20630;-91
2022/05/19 02:53:37;;;;;;;4.00;3.80;;;15.40;99.90;;;;;;4948551;28;20183;-90
2022/05/19 02:56:03;;;;;;;4.03;3.73;;;15.40;99.90;;;;;;4938117;28;20281;-90
2022/05/19 02:58:29;;;;;;;4.10;3.80;;;15.30;99.90;;;;;;4940324;28;20183;-91
2022/05/19 03:00:55;;;;;;;4.80;4.37;;;15.30;99.90;;;;;;4922942;28;20190;-91
2022/05/19 03:03:20;;;;;;;4.80;4.40;;;15.30;99.90;;;;;;4937878;28;20183;-90
2022/05/19 03:05:46;;;;;;;4.77;4.20;;;15.10;99.90;;;;;;4929270;28;20194;-91
2022/05/19 03:08:12;;;;;;;5.03;4.63;;;15.10;99.90;;;;;;4935297;28;20187;-92
2022/05/19 03:10:39;;;;;;;6.30;4.50;;;15.00;99.90;;;;;;4921204;28;20222;-91
2022/05/19 03:13:06;;;;;;;4.93;4.27;;;14.90;99.90;;;;;;4932340;28;20446;-91
2022/05/19 03:15:33;;;;;;;4.13;3.83;;;14.80;99.90;;;;;;4957532;28;20486;-92
2022/05/19 03:17:59;;;;;;;5.23;4.10;;;14.70;99.90;;;;;;4947701;28;20446;-92
2022/05/19 03:20:24;;;;;;;4.07;3.67;;;14.70;99.90;;;;;;4922348;28;20441;-92
2022/05/19 03:22:50;;;;;;;4.80;4.27;;;14.70;99.90;;;;;;4943155;28;20241;-91
2022/05/19 03:25:19;;;;;;;3.70;3.50;;;14.60;99.90;;;;;;4946521;28;20195;-89
2022/05/19 03:27:44;;;;;;;3.93;3.53;;;14.50;99.90;;;;;;4934648;28;20661;-91
2022/05/19 03:30:25;;;;;;;5.87;4.00;;;14.50;99.90;;;;;;4921752;28;20573;-89
2022/05/19 03:32:51;;;;;;;5.10;4.03;;;14.40;99.90;;;;;;4918812;28;20454;-91
2022/05/19 03:35:17;;;;;;;4.20;3.80;;;14.40;99.90;;;;;;4923545;28;21019;-91
2022/05/19 03:37:43;;;;;;;5.13;3.87;;;14.40;99.90;;;;;;4929091;28;20674;-90
2022/05/19 03:40:10;;;;;;;4.37;3.73;;;14.50;99.90;;;;;;4916202;28;20447;-92
2022/05/19 03:42:36;;;;;;;5.70;3.60;;;14.50;99.90;;;;;;4941704;28;20802;-91
2022/05/19 03:45:03;;;;;;;4.23;3.80;;;14.40;99.90;;;;;;4916561;28;20442;-91
2022/05/19 03:47:29;;;;;;;4.33;4.03;;;14.50;99.90;;;;;;4924953;28;20629;-91
2022/05/19 03:50:06;;;;;;;4.23;3.93;;;14.60;99.90;;;;;;4926097;28;20516;-92
2022/05/19 03:52:32;;;;;;;4.60;4.20;;;14.70;99.90;;;;;;4922754;28;20469;-91
2022/05/19 03:54:57;;;;;;;12.30;4.40;;;14.70;99.90;;;;;;4917108;28;20443;-92
2022/05/19 03:57:23;;;;;;;6.70;5.00;;;14.50;99.90;;;;;;4930517;28;20462;-91
2022/05/19 04:00:00;;;;;;;5.63;4.80;;;14.50;99.90;;;;;;4920917;28;20278;-91
2022/05/19 04:02:28;;;;;;;5.53;4.20;;;14.50;99.90;;;;;;4917334;28;20447;-89
2022/05/19 04:04:54;;;;;;;5.00;4.60;;;14.30;99.90;;;;;;4929221;28;20439;-91
2022/05/19 04:07:32;;;;;;;9.73;5.30;;;14.40;99.90;;;;;;4941219;28;21115;-90
2022/05/19 04:09:58;;;;;;;3.93;3.63;;;14.30;99.90;;;;;;4927008;28;20191;-90
2022/05/19 04:12:24;;;;;;;4.40;4.00;;;14.30;99.90;;;;;;4940480;28;20469;-91
2022/05/19 04:14:49;;;;;;;4.13;3.83;;;14.30;99.90;;;;;;4932263;28;20191;-90
2022/05/19 04:17:15;;;;;;;4.13;3.83;;;14.30;99.90;;;;;;4931191;28;20286;-89
2022/05/19 04:19:41;;;;;;;4.13;3.83;;;14.30;99.90;;;;;;4920139;28;21401;-89
2022/05/19 04:22:06;;;;;;;3.50;3.30;;;14.20;99.90;;;;;;4919433;28;20195;-90
2022/05/19 04:24:32;;;;;;;4.50;4.10;;;14.30;99.90;;;;;;4917084;28;20213;-89
2022/05/19 04:26:57;;;;;;;4.77;4.37;;;14.40;99.90;;;;;;4940335;28;20756;-91
2022/05/19 04:29:28;;;;;;;4.27;3.87;;;14.40;99.90;;;;;;4921821;28;20597;-90
2022/05/19 04:31:56;;;;;;;4.10;3.80;;;14.30;99.90;;;;;;4931754;28;20254;-90
2022/05/19 04:34:22;;;;;;;4.03;3.77;;;14.50;99.90;;;;;;4921058;28;20450;-90
2022/05/19 04:36:47;;;;;;;4.00;3.73;;;14.60;99.90;;;;;;4914240;28;20896;-92
2022/05/19 04:39:13;;;;;;;4.30;4.00;;;14.80;99.90;;;;;;4917491;28;20770;-90
2022/05/19 04:41:39;;;;;;;4.53;4.13;;;14.90;99.90;;;;;;4923547;28;20201;-90
2022/05/19 04:44:05;;;;;;;5.07;4.57;;;15.00;99.90;;;;;;4921102;28;20446;-90
2022/05/19 04:46:33;;;;;;;5.13;4.10;;;15.00;99.90;;;;;;4922655;28;20199;-91
2022/05/19 04:48:58;;;;;;;4.43;4.13;;;15.20;99.90;;;;;;4918265;28;20428;-91
2022/05/19 04:51:24;;;;;;;4.67;4.37;;;15.30;99.90;;;;;;4936086;28;20574;-91
2022/05/19 04:53:52;;;;;;;5.10;4.70;;;15.50;99.90;;;;;;4915096;28;20239;-91
2022/05/19 04:56:20;;;;;;;5.47;4.60;;;15.60;99.90;;;;;;4933544;28;21177;-92
2022/05/19 04:59:04;;;;;;;6.10;5.60;;;15.70;99.90;;;;;;4927866;28;20235;-91
2022/05/19 05:01:30;;;;;;;6.40;5.90;;;15.70;99.90;;;;;;4923878;28;20451;-91
2022/05/19 05:03:55;;;;;;;7.40;6.63;;;15.80;99.90;;;;;;4957962;28;20526;-92
2022/05/19 05:06:21;;;;;;;7.17;6.57;;;15.60;99.90;;;;;;4966826;28;20196;-92
2022/05/19 05:08:46;;;;;;;6.33;5.80;;;15.60;99.90;;;;;;4930666;28;20195;-91
2022/05/19 05:11:12;;;;;;;5.70;5.30;;;15.70;99.90;;;;;;4915767;28;20222;-91
2022/05/19 05:13:37;;;;;;;5.83;5.23;;;15.80;99.90;;;;;;4934308;28;20195;-90
2022/05/19 05:16:03;;;;;;;6.00;5.50;;;15.90;99.90;;;;;;4930057;28;20732;-90
2022/05/19 05:18:29;;;;;;;6.83;6.23;;;16.10;99.90;;;;;;4922309;28;20199;-91
2022/05/19 05:20:54;;;;;;;6.17;5.70;;;16.30;99.90;;;;;;4940006;28;20652;-90
2022/05/19 05:23:25;;;;;;;8.33;5.87;;;16.40;99.90;;;;;;4917240;28;20226;-90
2022/05/19 05:25:51;;;;;;;6.43;5.83;;;16.50;99.90;;;;;;4933990;28;20183;-91
2022/05/19 05:28:16;;;;;;;6.40;5.40;;;16.60;99.90;;;;;;4922326;28;20451;-91
2022/05/19 05:30:43;;;;;;;5.50;5.00;;;16.70;99.90;;;;;;4931392;28;20929;-92
2022/05/19 05:33:10;;;;;;;5.23;4.77;;;16.80;99.90;;;;;;4917976;28;20230;-91
2022/05/19 05:39:17;;;;;;;5.20;4.80;;;16.90;99.90;;;;;;4921929;28;20463;-90
2022/05/19 05:41:42;;;;;;;5.30;4.90;;;17.00;99.90;;;;;;4917478;28;20451;-91
2022/05/19 05:44:08;;;;;;;4.90;4.50;;;17.10;99.90;;;;;;4923017;28;20195;-91
2022/05/19 05:46:34;;;;;;;6.03;5.53;;;17.20;99.90;;;;;;4923269;28;20285;-91
2022/05/19 05:48:59;;;;;;;6.13;4.70;;;17.20;99.90;;;;;;4932915;28;20724;-91
2022/05/19 05:51:25;;;;;;;5.10;4.57;;;17.30;99.90;;;;;;4934896;28;21344;-92
2022/05/19 05:53:51;;;;;;;6.80;6.20;;;17.30;99.90;;;;;;4921469;28;20898;-90
2022/05/19 05:56:19;;;;;;;5.43;5.03;;;17.50;99.90;;;;;;4941242;28;20183;-89
2022/05/19 05:58:45;;;;;;;6.83;6.23;;;17.60;99.90;;;;;;4932467;28;20588;-90
2022/05/19 06:01:13;;;;;;;7.77;6.43;;;17.70;99.90;;;;;;4932951;28;20455;-89
2022/05/19 06:03:39;;;;;;;5.10;4.80;;;17.80;99.90;;;;;;4956084;28;20557;-89
2022/05/19 06:06:05;;;;;;;5.07;4.60;;;17.90;99.90;;;;;;4952137;28;20447;-91
2022/05/19 06:08:31;;;;;;;5.83;5.33;;;17.80;99.90;;;;;;4948289;28;21346;-90
2022/05/19 06:10:57;;;;;;;6.10;4.63;;;17.70;99.90;;;;;;4936932;28;20210;-89
2022/05/19 06:13:24;;;;;;;5.20;4.80;;;17.70;99.90;;;;;;4953961;28;21888;-91
2022/05/19 06:15:49;;;;;;;5.53;5.13;;;17.80;99.90;;;;;;4949727;28;20963;-90
2022/05/19 06:18:15;;;;;;;5.20;4.40;;;17.80;99.90;;;;;;4945467;28;20841;-91
2022/05/19 06:20:41;;;;;;;4.77;4.47;;;17.90;99.90;;;;;;4937292;28;20184;-91
2022/05/19 06:23:07;;;;;;;5.53;5.03;;;18.00;99.90;;;;;;4951964;28;20194;-90
2022/05/19 06:25:33;;;;;;;5.47;4.97;;;17.90;99.90;;;;;;4941291;28;20191;-91
2022/05/19 06:28:00;;;;;;;4.90;4.30;;;17.90;99.90;;;;;;4952001;28;20844;-92
2022/05/19 06:30:26;;;;;;;5.47;5.07;;;18.10;99.90;;;;;;4921179;29;20230;-91
2022/05/19 06:32:52;;;;;;;4.63;4.23;;;18.10;99.90;;;;;;4952285;28;20847;-91
2022/05/19 06:35:24;;;;;;;5.20;4.80;;;18.20;99.90;;;;;;4938140;28;20431;-92
2022/05/19 06:37:49;;;;;;;6.60;5.40;;;18.30;99.90;;;;;;4937707;28;20457;-95
2022/05/19 06:40:41;;;;;;;5.07;4.67;;;18.50;99.90;;;;;;4964890;28;20808;-96
2022/05/19 06:43:24;;;;;;;7.70;4.73;;;18.80;99.90;;;;;;4959799;28;20439;-94
2022/05/19 06:45:53;;;;;;;5.37;4.97;;;18.80;99.90;;;;;;4941756;28;20597;-94
2022/05/19 06:48:30;;;;;;;5.80;5.30;;;18.90;99.90;;;;;;4939687;28;20502;-95
2022/05/19 06:50:55;;;;;;;5.60;4.57;;;19.00;99.90;;;;;;4956958;28;20461;-94
2022/05/19 06:53:34;;;;;;;5.17;4.60;;;19.00;99.90;;;;;;4943335;28;20447;-94
2022/05/19 06:56:02;;;;;;;4.83;4.53;;;19.20;99.90;;;;;;4955622;28;20435;-95
2022/05/19 06:58:28;;;;;;;6.70;4.13;;;19.30;99.90;;;;;;4936559;28;21233;-95
2022/05/19 07:00:53;;;;;;;5.00;4.50;;;19.40;99.90;;;;;;4929566;28;20442;-92
2022/05/19 07:03:30;;;;;;;4.73;4.23;;;19.40;99.90;;;;;;4940039;28;20330;-95
2022/05/19 07:05:56;;;;;;;7.10;4.30;;;19.50;99.90;;;;;;4953020;28;20278;-96
2022/05/19 07:08:22;;;;;;;7.40;4.50;;;19.50;99.90;;;;;;4946695;28;20526;-95
2022/05/19 07:10:48;;;;;;;5.03;4.53;;;19.60;99.90;;;;;;4943012;28;21129;-93
2022/05/19 07:14:16;;;;;;;5.67;5.00;;;19.80;99.90;;;;;;4941928;28;20407;-87
2022/05/19 07:16:49;;;;;;;5.03;4.57;;;20.10;99.90;;;;;;4930625;28;20524;-88
2022/05/19 07:23:25;;;;;;;;;;;;;;;;;;;;;
2022/05/19 07:26:17;;;;;;;4.13;3.87;;;20.90;98.20;;;;;;4937177;28;20432;-90
2022/05/19 07:28:45;;;;;;;4.20;3.90;;;20.80;97.10;;;;;;4937588;28;21715;-89
2022/05/19 07:31:32;;;;;;;4.60;4.20;;;20.90;98.60;;;;;;4938160;28;20497;-87
2022/05/19 07:33:57;;;;;;;5.23;4.83;;;21.00;97.50;;;;;;4938954;28;20465;-93
2022/05/19 07:36:23;;;;;;;4.90;4.60;;;20.90;97.20;;;;;;4937115;28;20513;-94
2022/05/19 07:38:49;;;;;;;4.90;4.33;;;21.00;97.10;;;;;;4959267;28;20206;-92
2022/05/19 07:41:19;;;;;;;4.57;4.20;;;21.00;97.70;;;;;;4956177;28;20198;-90
2022/05/19 07:43:45;;;;;;;5.00;4.50;;;21.20;97.80;;;;;;4940118;28;20234;-92
2022/05/19 07:46:22;;;;;;;5.30;4.80;;;21.40;97.60;;;;;;4952039;28;20459;-92
2022/05/19 07:48:47;;;;;;;5.27;4.60;;;21.40;97.40;;;;;;4943203;28;20450;-91
2022/05/19 07:51:23;;;;;;;;;;;;;;;;;;;;;
2022/05/19 07:54:06;;;;;;;4.63;4.23;;;21.50;97.10;;;;;;4942927;28;20636;-92
2022/05/19 07:56:32;;;;;;;4.70;4.30;;;21.60;96.70;;;;;;4937333;28;20442;-88
2022/05/19 07:59:14;;;;;;;;;;;;;;;;;;;;;
2022/05/19 08:01:44;;;;;;;4.40;4.10;;;21.80;96.90;;;;;;4936991;28;20458;-88
2022/05/19 08:04:13;;;;;;;5.47;4.20;;;22.00;97.20;;;;;;4938049;28;20445;-90
2022/05/19 08:07:00;;;;;;;4.97;4.50;;;22.10;96.70;;;;;;4940237;28;20955;-90
2022/05/19 08:18:27;;;;;;;5.33;3.67;;;22.40;95.60;;;;;;4947745;28;20439;-96
2022/05/19 08:31:24;;;;;;;3.90;3.60;;;22.90;93.70;;;;;;5165948;23;20870;-91
2022/05/19 08:33:54;;;;;;;6.80;4.47;;;23.10;94.80;;;;;;4887932;29;20997;-90
2022/05/19 08:36:24;;;;;;;3.97;3.70;;;23.20;93.50;;;;;;4878267;29;20546;-90
2022/05/19 08:39:07;;;;;;;4.00;3.70;;;23.40;94.30;;;;;;4881414;29;20448;-90
2022/05/19 08:42:03;;;;;;;5.03;3.87;;;23.60;94.30;;;;;;4911483;29;20793;-88
2022/05/19 08:44:42;;;;;;;5.17;3.90;;;23.60;94.00;;;;;;4887668;29;20176;-87
2022/05/19 08:47:11;;;;;;;4.10;3.80;;;23.60;93.70;;;;;;4885283;29;20494;-85
2022/05/19 08:50:06;;;;;;;4.50;4.10;;;23.90;94.20;;;;;;4879259;29;20706;-88
2022/05/19 08:52:41;;;;;;;6.33;4.23;;;23.90;93.50;;;;;;4893672;29;20860;-86
2022/05/19 08:55:08;;;;;;;6.13;4.40;;;24.10;94.00;;;;;;4895674;29;20448;-84
2022/05/19 08:58:17;;;;;;;4.37;4.07;;;24.20;93.60;;;;;;4905595;29;20488;-88
2022/05/19 09:01:03;;;;;;;4.20;3.77;;;24.40;93.20;;;;;;4904317;29;20495;-86
2022/05/19 09:04:13;;;;;;;4.53;4.13;;;24.50;92.80;;;;;;4905386;29;20459;-88
2022/05/19 09:11:15;;;;;;;4.10;3.70;;;24.80;92.30;;;;;;4901535;29;20451;-90
2022/05/19 09:14:01;;;;;;;4.57;4.27;;;25.00;92.60;;;;;;4904042;29;20437;-88
2022/05/19 09:16:31;;;;;;;4.93;4.10;;;25.20;92.60;;;;;;4917838;29;21309;-89
2022/05/19 09:19:11;;;;;;;4.67;4.37;;;25.40;92.40;;;;;;4897296;29;20578;-92
2022/05/19 09:21:40;;;;;;;4.40;4.10;;;25.60;91.60;;;;;;4917894;29;20484;-90
2022/05/19 09:24:06;;;;;;;4.60;4.30;;;25.70;92.00;;;;;;4906554;29;20471;-92
2022/05/19 09:27:04;;;;;;;4.70;4.30;;;25.80;91.30;;;;;;4894756;29;20807;-91
2022/05/19 09:30:03;;;;;;;4.20;3.90;;;26.00;91.40;;;;;;4894485;29;20451;-90
2022/05/19 09:32:34;;;;;;;4.87;4.47;;;25.80;91.40;;;;;;4895384;29;20560;-88
2022/05/19 09:35:55;;;;;;;5.10;4.63;;;25.80;91.70;;;;;;4898270;29;20463;-91
2022/05/19 09:38:46;;;;;;;4.23;3.93;;;26.00;91.20;;;;;;4878778;29;22046;-90
2022/05/19 09:42:00;;;;;;;4.87;4.50;;;26.30;91.40;;;;;;4901219;29;20488;-89
2022/05/19 09:44:44;;;;;;;5.40;4.93;;;26.20;90.80;;;;;;4908091;29;20478;-91
2022/05/19 09:51:41;;;;;;;4.07;3.87;;;26.70;90.60;;;;;;4902485;29;20972;-92
2022/05/19 10:02:25;;;;;;;8.37;4.87;;;27.30;90.50;;;;;;6028845;23;20405;-92
2022/05/19 10:04:55;;;;;;;4.80;4.50;;;27.40;90.40;;;;;;4927149;28;20470;-92
2022/05/19 10:07:44;;;;;;;4.70;4.30;;;27.40;89.90;;;;;;4911351;29;20471;-92
2022/05/19 10:10:25;;;;;;;9.50;4.70;;;27.40;89.10;;;;;;4909623;29;20475;-88
2022/05/19 10:12:54;;;;;;;8.97;5.40;;;27.50;89.80;;;;;;4910961;29;20466;-86
2022/05/19 10:15:22;;;;;;;5.30;4.67;;;27.70;89.20;;;;;;4920905;28;21994;-85
2022/05/19 10:18:22;;;;;;;5.17;4.87;;;28.00;90.30;;;;;;4937148;28;20467;-95
2022/05/19 10:21:21;;;;;;;5.40;4.90;;;28.20;87.20;;;;;;4932846;28;20512;-96
2022/05/19 10:24:08;;;;;;;4.83;4.47;;;28.20;89.10;;;;;;4905131;29;20454;-88
2022/05/19 10:26:47;;;;;;;4.87;4.37;;;28.40;85.80;;;;;;4929448;28;20451;-88
2022/05/19 10:32:49;;;;;;;5.07;4.60;;;28.40;85.80;;;;;;4925432;29;20446;-88
2022/05/19 10:35:52;;;;;;;6.07;4.57;;;28.50;84.50;;;;;;4906787;29;20629;-89
2022/05/19 10:38:37;;;;;;;4.93;4.63;;;28.80;82.90;;;;;;4925000;28;20447;-89
2022/05/19 10:41:35;;;;;;;4.90;4.50;;;28.80;81.20;;;;;;4929193;29;20498;-88
2022/05/19 10:44:29;;;;;;;5.87;5.03;;;28.70;81.70;;;;;;4926612;29;20515;-87
2022/05/19 10:47:36;;;;;;;5.20;4.90;;;29.00;81.00;;;;;;4934459;28;20499;-87
2022/05/19 10:50:23;;;;;;;5.10;4.60;;;29.30;80.10;;;;;;4938329;28;20461;-88
2022/05/19 10:53:13;;;;;;;5.10;4.70;;;29.40;78.40;;;;;;4939628;28;20470;-89
2022/05/19 10:56:06;;;;;;;5.20;4.80;;;29.50;80.20;;;;;;4940894;28;20451;-88
2022/05/19 10:58:51;;;;;;;4.40;4.10;;;29.60;81.60;;;;;;4941241;28;20436;-88
2022/05/19 11:01:29;;;;;;;5.37;4.87;;;29.10;79.10;;;;;;4926117;29;20491;-88
2022/05/19 11:04:09;;;;;;;4.80;4.50;;;28.80;80.40;;;;;;4932221;28;20460;-90
2022/05/19 11:07:09;;;;;;;4.50;4.20;;;28.90;79.10;;;;;;4903321;29;21524;-90
2022/05/19 11:09:54;;;;;;;5.17;4.77;;;29.20;79.10;;;;;;4902589;29;20452;-91
2022/05/19 11:12:37;;;;;;;5.33;4.20;;;29.70;76.20;;;;;;4919551;28;20526;-87
2022/05/19 11:15:38;;;;;;;5.00;4.53;;;30.00;76.50;;;;;;4928767;28;20443;-92
2022/05/19 11:18:19;;;;;;;11.20;10.40;;;30.30;74.60;;;;;;4921783;29;20490;-92
2022/05/19 11:21:43;;;;;;;146.00;136.03;;;30.40;73.70;;;;;;4944248;28;20487;-90
2022/05/19 11:37:04;;;;;;;4.73;4.33;;;30.60;68.60;;;;;;5769987;23;21045;-96
2022/05/19 11:40:03;;;;;;;5.03;4.53;;;30.80;69.00;;;;;;4911565;29;20586;-92
2022/05/19 11:42:42;;;;;;;4.73;4.33;;;31.10;66.90;;;;;;4900543;29;20487;-88
2022/05/19 11:45:14;;;;;;;4.63;4.17;;;30.90;66.80;;;;;;4914674;29;20781;-89
2022/05/19 11:57:37;;;;;;;5.47;4.30;;;30.90;63.20;;;;;;4905599;29;20500;-90
2022/05/19 12:00:07;;;;;;;4.90;3.83;;;30.90;65.90;;;;;;4917614;29;20451;-90
2022/05/19 12:02:55;;;;;;;4.40;4.00;;;31.10;63.90;;;;;;4921048;29;20452;-91
2022/05/19 12:05:26;;;;;;;4.60;4.20;;;31.10;64.50;;;;;;4899221;29;20444;-92
2022/05/19 12:07:55;;;;;;;4.10;3.80;;;31.30;66.10;;;;;;4923630;29;20452;-90
2022/05/19 12:10:50;;;;;;;4.43;4.03;;;31.40;63.40;;;;;;4918313;29;20444;-90
2022/05/19 12:13:25;;;;;;;5.83;3.90;;;31.30;62.90;;;;;;4904465;29;20875;-89
2022/05/19 12:16:06;;;;;;;4.20;3.90;;;31.30;60.40;;;;;;4915065;29;20519;-91
2022/05/19 12:18:31;;;;;;;5.00;4.50;;;31.30;60.40;;;;;;4919587;29;20447;-92
2022/05/19 12:21:00;;;;;;;4.87;4.40;;;30.90;60.60;;;;;;4916935;29;20834;-91
2022/05/19 12:23:30;;;;;;;3.97;3.67;;;31.30;59.60;;;;;;4918974;29;20646;-93
2022/05/19 12:26:07;;;;;;;3.60;3.30;;;31.80;58.70;;;;;;4915336;29;21758;-91
2022/05/19 12:28:44;;;;;;;4.33;4.03;;;32.00;57.90;;;;;;4919792;29;20451;-90
2022/05/19 12:34:15;;;;;;;3.63;2.80;;;31.90;56.50;;;;;;4901759;29;20523;-87
2022/05/19 12:36:47;;;;;;;3.70;3.40;;;31.80;56.80;;;;;;4905393;29;20453;-89
2022/05/19 12:39:16;;;;;;;4.00;3.50;;;31.80;57.00;;;;;;4906895;29;20451;-90
2022/05/19 12:41:55;;;;;;;4.03;3.70;;;31.90;56.40;;;;;;4922922;29;20542;-90
2022/05/19 12:44:39;;;;;;;4.20;3.43;;;31.90;55.80;;;;;;4921472;29;20460;-89
2022/05/19 12:47:10;;;;;;;3.70;3.40;;;32.00;54.10;;;;;;4907058;29;20973;-90
2022/05/19 12:49:46;;;;;;;3.40;3.07;;;31.90;55.30;;;;;;4923781;29;20488;-89
2022/05/19 12:52:14;;;;;;;4.87;3.30;;;31.70;53.50;;;;;;4924262;29;20483;-92
2022/05/19 12:54:52;;;;;;;3.53;3.17;;;31.50;54.40;;;;;;4909802;29;20449;-90
2022/05/19 12:57:35;;;;;;;5.60;3.50;;;31.70;54.40;;;;;;4920131;29;20482;-91
2022/05/19 13:00:22;;;;;;;3.30;3.10;;;32.00;52.80;;;;;;4908582;29;20538;-92
2022/05/19 13:03:01;;;;;;;3.57;3.27;;;32.60;53.80;;;;;;4907784;29;20611;-89
2022/05/19 13:05:55;;;;;;;3.73;3.43;;;32.50;51.80;;;;;;4900906;29;20443;-90
2022/05/19 13:08:30;;;;;;;3.33;2.93;;;32.90;52.00;;;;;;4898634;29;20802;-90
2022/05/19 13:11:00;;;;;;;3.30;3.00;;;33.40;50.50;;;;;;4912314;29;20443;-91
2022/05/19 13:13:39;;;;;;;3.70;3.10;;;33.30;48.60;;;;;;4905788;29;20444;-90
2022/05/19 13:16:13;;;;;;;3.20;3.00;;;33.10;49.70;;;;;;4919583;29;20462;-91
2022/05/19 13:18:49;;;;;;;3.77;3.30;;;32.90;50.80;;;;;;4926168;29;20436;-91
2022/05/19 13:21:27;;;;;;;4.23;3.07;;;32.80;51.00;;;;;;4911338;29;20467;-91
2022/05/19 13:23:53;;;;;;;4.37;3.03;;;33.50;48.60;;;;;;4921419;29;20452;-90
2022/05/19 13:26:31;;;;;;;5.17;3.00;;;33.40;48.40;;;;;;4930232;29;20962;-91
2022/05/19 13:32:11;;;;;;;3.40;3.20;;;33.90;46.90;;;;;;4914295;29;20968;-92
2022/05/19 13:34:42;;;;;;;3.37;3.07;;;33.90;46.00;;;;;;4912815;29;20432;-90
2022/05/19 13:37:08;;;;;;;4.13;3.60;;;32.70;46.50;;;;;;4903867;29;20608;-89
2022/05/19 13:39:34;;;;;;;6.00;3.30;;;32.50;47.60;;;;;;4907200;29;20440;-90
2022/05/19 13:42:07;;;;;;;3.30;3.00;;;32.70;48.20;;;;;;4925685;29;20482;-89
2022/05/19 13:44:52;;;;;;;3.13;2.87;;;33.10;48.10;;;;;;4926757;29;20277;-89
2022/05/19 13:47:21;;;;;;;6.07;3.50;;;32.90;46.40;;;;;;4912556;29;20965;-90
2022/05/19 13:49:54;;;;;;;3.63;3.30;;;33.20;45.70;;;;;;4930230;29;20431;-90
2022/05/19 13:52:35;;;;;;;5.10;3.33;;;33.20;48.10;;;;;;4907498;29;20449;-89
2022/05/19 13:55:23;;;;;;;4.93;2.80;;;32.80;47.00;;;;;;4909729;29;21226;-89
2022/05/19 13:57:50;;;;;;;3.80;3.50;;;33.30;46.40;;;;;;4907480;29;20455;-93
2022/05/19 14:00:17;;;;;;;3.83;3.30;;;33.70;44.90;;;;;;4918981;29;20448;-96
2022/05/19 14:02:45;;;;;;;6.13;3.77;;;33.80;45.40;;;;;;4920086;29;20546;-94
2022/05/19 14:05:40;;;;;;;4.80;3.80;;;34.20;43.30;;;;;;4902341;29;20437;-93
2022/05/19 14:13:22;;;;;;;3.53;3.20;;;35.40;40.80;;;;;;5972421;23;20617;-95
2022/05/19 14:16:27;;;;;;;3.13;2.83;;;36.10;39.60;;;;;;4950146;28;20450;-95
2022/05/19 14:19:02;;;;;;;5.70;3.03;;;36.40;40.80;;;;;;4944482;28;20419;-92
2022/05/19 14:21:42;;;;;;;4.73;3.13;;;37.40;39.10;;;;;;4961263;28;20239;-96
2022/05/19 14:24:15;;;;;;;3.20;2.90;;;38.10;39.00;;;;;;4947560;28;20858;-94
2022/05/19 14:29:41;;;;;;;4.33;3.87;;;36.50;38.40;;;;;;5727117;23;20204;-95
2022/05/19 14:35:17;;;;;;;4.07;3.70;;;32.90;44.00;;;;;;5071366;23;20505;-96
2022/05/19 14:48:10;;;;;;;3.60;3.03;;;35.00;41.90;;;;;;4958088;28;20627;-96
2022/05/19 14:53:13;;;;;;;3.50;3.20;;;33.80;44.20;;;;;;5693712;23;21245;-93
2022/05/19 14:55:59;;;;;;;4.10;3.70;;;33.60;45.80;;;;;;5025723;23;20494;-93
2022/05/19 14:58:35;;;;;;;5.47;3.00;;;34.50;44.70;;;;;;4907541;29;20559;-91
2022/05/19 15:01:02;;;;;;;3.70;3.40;;;33.40;46.40;;;;;;4898892;29;20568;-90
2022/05/19 15:03:28;;;;;;;4.17;3.30;;;32.90;48.40;;;;;;4888544;29;21245;-90
2022/05/19 15:05:53;;;;;;;3.63;3.30;;;33.40;48.60;;;;;;4916330;29;20450;-90